createdAt,value
2018-06-05T00:01:14.668Z,77.96
2018-06-05T00:03:42.753Z,78.21
2018-06-05T00:06:11.048Z,78.28
2018-06-05T00:08:39.140Z,77.76
2018-06-05T00:11:07.324Z,77.94
2018-06-05T00:13:35.568Z,77.77
2018-06-05T00:16:03.640Z,78.61
2018-06-05T00:18:31.778Z,78.24
2018-06-05T00:21:00.356Z,78.60
2018-06-05T00:23:28.528Z,79.15
2018-06-05T00:25:56.632Z,79.41
2018-06-05T00:28:24.744Z,79.24
2018-06-05T00:30:53.324Z,79.54
2018-06-05T00:33:21.395Z,79.55
2018-06-05T00:35:49.963Z,79.98
2018-06-05T00:38:18.060Z,79.98
2018-06-05T00:40:46.136Z,80.27
2018-06-05T00:43:17.112Z,80.36
2018-06-05T00:45:51.072Z,80.55
2018-06-05T00:48:19.412Z,80.65
2018-06-05T00:50:48.296Z,80.89
2018-06-05T00:53:17.584Z,81.13
2018-06-05T00:55:45.685Z,80.81
2018-06-05T00:58:13.812Z,81.29
2018-06-05T01:00:41.898Z,81.78
2018-06-05T01:03:10.140Z,82.33
2018-06-05T01:05:38.713Z,82.31
2018-06-05T01:08:07.589Z,82.34
2018-06-05T01:10:37.500Z,81.60
2018-06-05T01:13:05.613Z,81.85
2018-06-05T01:15:33.866Z,82.30
2018-06-05T01:18:01.974Z,82.16
2018-06-05T01:20:30.075Z,82.48
2018-06-05T01:22:58.240Z,82.95
2018-06-05T01:25:26.357Z,82.80
2018-06-05T01:27:55.055Z,82.57
2018-06-05T01:30:24.259Z,83.07
2018-06-05T01:32:52.353Z,83.16
2018-06-05T01:35:20.420Z,83.23
2018-06-05T01:37:48.500Z,82.10
2018-06-05T01:40:17.202Z,82.72
2018-06-05T01:42:45.288Z,82.59
2018-06-05T01:45:13.393Z,82.22
2018-06-05T01:47:41.836Z,83.66
2018-06-05T01:50:10.849Z,83.45
2018-06-05T01:52:39.322Z,83.40
2018-06-05T01:55:07.649Z,82.78
2018-06-05T01:57:36.972Z,82.52
2018-06-05T02:00:05.181Z,82.74
2018-06-05T02:02:33.279Z,83.38
2018-06-05T02:05:01.617Z,83.39
2018-06-05T02:07:30.464Z,83.11
2018-06-05T02:09:58.643Z,83.72
2018-06-05T02:12:26.832Z,83.78
2018-06-05T02:14:55.068Z,84.59
2018-06-05T02:17:23.160Z,84.89
2018-06-05T02:19:51.759Z,85.06
2018-06-05T02:22:21.160Z,85.45
2018-06-05T02:24:51.540Z,85.39
2018-06-05T02:27:20.762Z,85.88
2018-06-05T02:29:49.080Z,85.73
2018-06-05T02:32:17.676Z,85.30
2018-06-05T02:34:45.779Z,85.19
2018-06-05T02:37:13.956Z,85.06
2018-06-05T02:39:42.074Z,85.32
2018-06-05T02:42:10.644Z,85.11
2018-06-05T02:44:38.856Z,85.15
2018-06-05T02:47:06.984Z,85.34
2018-06-05T02:49:35.428Z,84.88
2018-06-05T02:52:03.537Z,85.42
2018-06-05T02:54:31.733Z,85.32
2018-06-05T02:57:00.280Z,86.03
2018-06-05T02:59:28.684Z,85.95
2018-06-05T03:01:56.862Z,86.40
2018-06-05T03:04:25.952Z,86.56
2018-06-05T03:06:54.301Z,86.24
2018-06-05T03:09:22.414Z,84.97
2018-06-05T03:11:51.334Z,85.24
2018-06-05T03:14:19.444Z,85.85
2018-06-05T03:16:48.767Z,85.62
2018-06-05T03:19:16.935Z,85.32
2018-06-05T03:21:45.068Z,85.03
2018-06-05T03:24:13.162Z,85.62
2018-06-05T03:26:42.188Z,85.94
2018-06-05T03:29:10.865Z,86.02
2018-06-05T03:31:39.648Z,86.06
2018-06-05T03:34:08.760Z,85.99
2018-06-05T03:36:36.872Z,85.75
2018-06-05T03:39:06.428Z,85.64
2018-06-05T03:41:34.514Z,84.92
2018-06-05T03:44:03.000Z,84.49
2018-06-05T03:46:31.068Z,84.49
2018-06-05T03:48:59.701Z,84.79
2018-06-05T03:51:28.079Z,84.33
2018-06-05T03:53:56.389Z,84.90
2018-06-05T03:56:24.480Z,85.11
2018-06-05T03:58:52.619Z,84.80
2018-06-05T04:01:20.707Z,85.01
2018-06-05T04:03:48.844Z,85.48
2018-06-05T04:06:17.105Z,85.00
2018-06-05T04:08:45.184Z,84.53
2018-06-05T04:11:13.979Z,83.86
2018-06-05T04:13:42.075Z,82.68
2018-06-05T04:16:10.520Z,82.15
2018-06-05T04:18:42.731Z,81.45
2018-06-05T04:21:10.862Z,81.76
2018-06-05T04:23:39.056Z,81.44
2018-06-05T04:26:07.140Z,81.62
2018-06-05T04:28:35.373Z,80.80
2018-06-05T04:31:03.476Z,79.80
2018-06-05T04:33:31.551Z,79.88
2018-06-05T04:35:59.635Z,79.58
2018-06-05T04:38:27.709Z,79.33
2018-06-05T04:40:56.035Z,78.99
2018-06-05T04:43:24.116Z,79.02
2018-06-05T04:45:52.200Z,77.68
2018-06-05T04:48:20.482Z,77.42
2018-06-05T04:50:49.729Z,77.10
2018-06-05T04:53:17.838Z,76.10
2018-06-05T04:55:46.052Z,76.58
2018-06-05T04:58:14.233Z,75.91
2018-06-05T05:00:42.323Z,75.37
2018-06-05T05:03:10.415Z,75.69
2018-06-05T05:05:38.503Z,77.53
2018-06-05T05:08:06.663Z,76.86
2018-06-05T05:10:34.755Z,75.18
2018-06-05T05:13:02.839Z,72.68
2018-06-05T05:15:31.006Z,70.65
2018-06-05T05:17:59.083Z,64.97
2018-06-05T05:20:27.420Z,58.46
2018-06-05T05:22:55.528Z,54.21
2018-06-05T05:25:23.992Z,50.07
2018-06-05T05:27:52.301Z,47.21
2018-06-05T05:30:20.403Z,44.54
2018-06-05T05:32:48.480Z,45.67
2018-06-05T05:35:18.396Z,45.18
2018-06-05T05:37:46.497Z,43.80
2018-06-05T05:40:14.621Z,41.10
2018-06-05T05:42:42.711Z,39.97
2018-06-05T05:45:10.901Z,39.82
2018-06-05T05:47:38.996Z,39.17
2018-06-05T05:50:07.088Z,37.65
2018-06-05T05:52:35.176Z,41.48
2018-06-05T05:55:03.317Z,43.20
2018-06-05T05:57:31.531Z,42.21
2018-06-05T05:59:59.616Z,41.21
2018-06-05T06:02:27.784Z,43.65
2018-06-05T06:04:56.119Z,44.70
2018-06-05T06:07:24.508Z,41.58
2018-06-05T06:09:52.784Z,42.91
2018-06-05T06:12:21.042Z,42.20
2018-06-05T06:14:49.329Z,40.67
2018-06-05T06:17:17.420Z,38.88
2018-06-05T06:19:45.552Z,38.78
2018-06-05T06:22:13.652Z,41.72
2018-06-05T06:24:41.731Z,46.66
2018-06-05T06:27:09.829Z,49.80
2018-06-05T06:29:37.924Z,48.17
2018-06-05T06:32:06.042Z,46.60
2018-06-05T06:34:34.201Z,45.15
2018-06-05T06:37:02.345Z,44.25
2018-06-05T06:39:30.875Z,46.57
2018-06-05T06:41:59.197Z,50.61
2018-06-05T06:44:27.796Z,52.88
2018-06-05T06:46:55.907Z,52.10
2018-06-05T06:49:24.008Z,54.42
2018-06-05T06:51:52.280Z,55.86
2018-06-05T06:54:20.624Z,55.97
2018-06-05T06:56:48.720Z,56.96
2018-06-05T06:59:16.867Z,56.64
2018-06-05T07:01:44.965Z,57.18
2018-06-05T07:04:13.088Z,58.93
2018-06-05T07:06:41.176Z,58.89
2018-06-05T07:09:09.427Z,58.71
2018-06-05T07:11:37.532Z,58.38
2018-06-05T07:14:05.646Z,59.24
2018-06-05T07:16:33.684Z,59.02
2018-06-05T07:19:01.801Z,58.90
2018-06-05T07:21:29.904Z,58.96
2018-06-05T07:23:58.637Z,57.34
2018-06-05T07:26:26.720Z,57.89
2018-06-05T07:28:54.831Z,62.97
2018-06-05T07:31:22.946Z,60.29
2018-06-05T07:33:51.073Z,58.46
2018-06-05T07:36:19.174Z,59.27
2018-06-05T07:38:47.270Z,59.17
2018-06-05T07:41:15.393Z,59.31
2018-06-05T07:43:43.489Z,59.13
2018-06-05T07:46:11.581Z,58.72
2018-06-05T07:48:39.795Z,57.43
2018-06-05T07:51:07.864Z,54.93
2018-06-05T07:53:36.016Z,56.24
2018-06-05T07:56:05.089Z,56.89
2018-06-05T07:58:33.182Z,57.92
2018-06-05T08:01:01.280Z,59.09
2018-06-05T08:03:29.411Z,57.87
2018-06-05T08:05:57.768Z,57.35
2018-06-05T08:08:26.095Z,55.66
2018-06-05T08:10:54.724Z,55.22
2018-06-05T08:13:22.854Z,58.24
2018-06-05T08:15:50.971Z,54.49
2018-06-05T08:18:19.105Z,53.15
2018-06-05T08:20:47.319Z,55.08
2018-06-05T08:23:16.485Z,56.29
2018-06-05T08:25:44.576Z,56.59
2018-06-05T08:28:12.723Z,56.14
2018-06-05T08:30:40.844Z,56.35
2018-06-05T08:33:08.940Z,51.52
2018-06-05T08:35:37.034Z,51.76
2018-06-05T08:38:05.446Z,53.32
2018-06-05T08:40:33.536Z,51.62
2018-06-05T08:43:02.268Z,53.50
2018-06-05T08:45:30.361Z,52.31
2018-06-05T08:47:58.635Z,52.11
2018-06-05T08:50:26.744Z,52.08
2018-06-05T08:52:55.973Z,51.41
2018-06-05T08:55:24.221Z,51.27
2018-06-05T08:57:52.628Z,52.25
2018-06-05T09:00:20.724Z,50.79
2018-06-05T09:02:49.644Z,50.33
2018-06-05T09:05:17.759Z,51.03
2018-06-05T09:07:45.831Z,50.12
2018-06-05T09:10:14.093Z,51.05
2018-06-05T09:12:42.204Z,49.63
2018-06-05T09:15:10.368Z,50.26
2018-06-05T09:17:38.459Z,52.86
2018-06-05T09:20:06.662Z,55.25
2018-06-05T09:22:35.537Z,53.28
2018-06-05T09:25:03.665Z,52.72
2018-06-05T09:27:32.001Z,52.24
2018-06-05T09:30:00.326Z,52.27
2018-06-05T09:32:28.512Z,51.04
2018-06-05T09:34:56.672Z,50.60
2018-06-05T09:37:24.784Z,50.77
2018-06-05T09:39:53.109Z,51.86
2018-06-05T09:42:21.935Z,50.63
2018-06-05T09:44:50.096Z,51.00
2018-06-05T09:47:18.168Z,50.20
2018-06-05T09:49:46.366Z,50.36
2018-06-05T09:52:15.160Z,48.60
2018-06-05T09:54:43.280Z,48.73
2018-06-05T09:57:11.394Z,49.99
2018-06-05T09:59:39.492Z,48.62
2018-06-05T10:02:07.587Z,48.16
2018-06-05T10:04:35.768Z,47.76
2018-06-05T10:07:03.860Z,50.47
2018-06-05T10:09:32.072Z,50.78
2018-06-05T10:12:00.148Z,46.80
2018-06-05T10:14:29.153Z,47.40
2018-06-05T10:16:57.328Z,48.37
2018-06-05T10:19:25.416Z,46.59
2018-06-05T10:21:53.516Z,47.80
2018-06-05T10:24:21.734Z,49.45
2018-06-05T10:26:49.964Z,45.68
2018-06-05T10:29:18.064Z,46.34
2018-06-05T10:31:46.163Z,46.45
2018-06-05T10:34:14.477Z,45.92
2018-06-05T10:36:42.560Z,45.91
2018-06-05T10:39:10.637Z,46.57
2018-06-05T10:41:38.736Z,47.34
2018-06-05T10:44:07.048Z,45.83
2018-06-05T10:46:35.187Z,47.32
2018-06-05T10:49:03.236Z,46.09
2018-06-05T10:51:31.331Z,45.01
2018-06-05T10:53:59.816Z,45.60
2018-06-05T10:56:27.909Z,46.18
2018-06-05T10:58:56.287Z,45.54
2018-06-05T11:01:24.428Z,46.34
2018-06-05T11:03:52.531Z,46.54
2018-06-05T11:06:20.625Z,46.25
2018-06-05T11:08:48.720Z,45.63
2018-06-05T11:11:16.947Z,45.15
2018-06-05T11:13:45.046Z,45.32
2018-06-05T11:16:13.157Z,44.89
2018-06-05T11:18:41.438Z,44.74
2018-06-05T11:21:09.508Z,43.26
2018-06-05T11:23:37.620Z,44.71
2018-06-05T11:26:06.184Z,45.50
2018-06-05T11:28:34.296Z,44.71
2018-06-05T11:31:02.560Z,43.85
2018-06-05T11:33:31.141Z,44.08
2018-06-05T11:35:59.288Z,43.39
2018-06-05T11:38:27.379Z,44.91
2018-06-05T11:40:55.449Z,43.91
2018-06-05T11:43:23.556Z,42.98
2018-06-05T11:45:51.656Z,43.80
2018-06-05T11:48:19.763Z,42.35
2018-06-05T11:50:47.869Z,43.61
2018-06-05T11:53:16.271Z,42.54
2018-06-05T11:55:44.552Z,41.68
2018-06-05T11:58:12.632Z,44.26
2018-06-05T12:00:40.716Z,40.79
2018-06-05T12:03:09.052Z,39.40
2018-06-05T12:05:37.143Z,39.09
2018-06-05T12:08:05.248Z,40.18
2018-06-05T12:10:33.332Z,40.93
2018-06-05T12:13:01.645Z,40.29
2018-06-05T12:15:29.877Z,39.62
2018-06-05T12:17:58.253Z,39.80
2018-06-05T12:20:26.974Z,40.85
2018-06-05T12:22:55.053Z,41.52
2018-06-05T12:25:23.176Z,38.54
2018-06-05T12:27:51.471Z,39.94
2018-06-05T12:30:19.560Z,39.31
2018-06-05T12:32:47.641Z,38.87
2018-06-05T12:35:15.749Z,41.64
2018-06-05T12:37:43.867Z,41.96
2018-06-05T12:40:11.969Z,40.48
2018-06-05T12:42:40.144Z,41.01
2018-06-05T12:45:08.251Z,40.82
2018-06-05T12:47:36.372Z,40.42
2018-06-05T12:50:04.488Z,39.81
2018-06-05T12:52:32.739Z,40.88
2018-06-05T12:55:00.830Z,38.49
2018-06-05T12:57:29.013Z,37.70
2018-06-05T12:59:57.161Z,37.83
2018-06-05T13:02:25.252Z,37.67
2018-06-05T13:04:53.350Z,36.63
2018-06-05T13:07:21.432Z,37.41
2018-06-05T13:09:49.516Z,37.70
2018-06-05T13:12:17.648Z,37.73
2018-06-05T13:14:45.900Z,37.29
2018-06-05T13:17:14.195Z,39.35
2018-06-05T13:19:42.633Z,38.27
2018-06-05T13:22:10.699Z,39.28
2018-06-05T13:24:38.792Z,37.48
2018-06-05T13:27:07.786Z,36.99
2018-06-05T13:29:35.893Z,38.09
2018-06-05T13:32:04.013Z,36.23
2018-06-05T13:34:32.100Z,35.48
2018-06-05T13:37:00.194Z,35.57
2018-06-05T13:39:29.267Z,35.33
2018-06-05T13:41:57.652Z,35.82
2018-06-05T13:44:25.724Z,35.28
2018-06-05T13:46:53.841Z,33.82
2018-06-05T13:49:21.931Z,35.08
2018-06-05T13:51:50.360Z,34.84
2018-06-05T13:54:18.428Z,36.14
2018-06-05T13:56:46.577Z,34.24
2018-06-05T13:59:15.785Z,35.23
2018-06-05T14:01:44.121Z,35.69
2018-06-05T14:04:12.250Z,36.16
2018-06-05T14:06:40.561Z,35.28
2018-06-05T14:09:09.250Z,36.07
2018-06-05T14:11:37.788Z,37.22
2018-06-05T14:14:05.897Z,36.90
2018-06-05T14:16:34.064Z,37.91
2018-06-05T14:19:02.181Z,38.87
2018-06-05T14:21:30.640Z,38.04
2018-06-05T14:23:58.724Z,38.02
2018-06-05T14:26:26.871Z,37.77
2018-06-05T14:28:55.162Z,37.84
2018-06-05T14:31:24.016Z,37.61
2018-06-05T14:33:52.089Z,36.87
2018-06-05T14:36:20.205Z,36.13
2018-06-05T14:38:48.273Z,37.05
2018-06-05T14:41:16.532Z,36.82
2018-06-05T14:43:44.632Z,35.73
2018-06-05T14:46:13.732Z,35.88
2018-06-05T14:48:41.956Z,33.36
2018-06-05T14:51:10.248Z,34.67
2018-06-05T14:53:38.335Z,34.14
2018-06-05T14:56:06.425Z,35.90
2018-06-05T14:58:34.603Z,36.69
2018-06-05T15:01:02.688Z,33.72
2018-06-05T15:03:30.849Z,35.01
2018-06-05T15:05:58.916Z,35.49
2018-06-05T15:08:27.008Z,35.96
2018-06-05T15:10:55.540Z,34.77
2018-06-05T15:13:23.636Z,36.04
2018-06-05T15:15:51.716Z,36.17
2018-06-05T15:18:19.820Z,35.38
2018-06-05T15:20:47.920Z,34.74
2018-06-05T15:23:16.076Z,34.72
2018-06-05T15:25:44.184Z,34.45
2018-06-05T15:28:12.459Z,34.80
2018-06-05T15:30:40.648Z,35.38
2018-06-05T15:33:08.724Z,36.04
2018-06-05T15:35:37.701Z,34.24
2018-06-05T15:38:05.807Z,34.36
2018-06-05T15:40:34.117Z,35.33
2018-06-05T15:43:02.889Z,35.68
2018-06-05T15:45:31.099Z,34.15
2018-06-05T15:47:59.264Z,34.07
2018-06-05T15:50:27.382Z,33.01
2018-06-05T15:52:55.544Z,32.66
2018-06-05T15:55:23.652Z,32.98
2018-06-05T15:57:51.719Z,33.71
2018-06-05T16:00:19.833Z,34.82
2018-06-05T16:02:48.000Z,34.23
2018-06-05T16:05:16.356Z,34.67
2018-06-05T16:07:44.812Z,35.22
2018-06-05T16:10:12.972Z,36.28
2018-06-05T16:12:41.057Z,35.81
2018-06-05T16:15:09.174Z,36.62
2018-06-05T16:17:37.240Z,35.85
2018-06-05T16:20:05.354Z,36.50
2018-06-05T16:22:33.416Z,35.60
2018-06-05T16:25:01.504Z,36.07
2018-06-05T16:27:29.576Z,37.32
2018-06-05T16:29:57.680Z,36.68
2018-06-05T16:32:25.784Z,38.64
2018-06-05T16:34:53.882Z,39.28
2018-06-05T16:37:22.292Z,38.26
2018-06-05T16:39:50.383Z,39.09
2018-06-05T16:42:18.550Z,38.22
2018-06-05T16:44:46.621Z,39.46
2018-06-05T16:47:14.680Z,39.99
2018-06-05T16:49:42.771Z,41.13
2018-06-05T16:52:10.877Z,40.75
2018-06-05T16:54:38.978Z,41.15
2018-06-05T16:57:07.063Z,41.06
2018-06-05T16:59:35.169Z,40.83
2018-06-05T17:02:03.273Z,41.29
2018-06-05T17:04:31.521Z,41.45
2018-06-05T17:07:03.728Z,42.59
2018-06-05T17:09:31.836Z,42.72
2018-06-05T17:12:00.854Z,42.13
2018-06-05T17:14:29.008Z,43.28
2018-06-05T17:16:57.218Z,43.43
2018-06-05T17:19:25.618Z,43.29
2018-06-05T17:21:53.708Z,43.29
2018-06-05T17:24:22.006Z,43.48
2018-06-05T17:26:50.304Z,43.89
2018-06-05T17:29:18.411Z,44.55
2018-06-05T17:31:46.531Z,45.00
2018-06-05T17:34:14.609Z,45.66
2018-06-05T17:36:42.739Z,46.25
2018-06-05T17:39:11.945Z,45.99
2018-06-05T17:41:40.088Z,46.00
2018-06-05T17:44:08.169Z,47.00
2018-06-05T17:46:36.267Z,46.60
2018-06-05T17:49:04.360Z,46.54
2018-06-05T17:51:32.448Z,46.41
2018-06-05T17:54:00.533Z,45.59
2018-06-05T17:56:28.630Z,46.29
2018-06-05T17:58:56.926Z,45.78
2018-06-05T18:01:25.017Z,47.26
2018-06-05T18:03:53.565Z,48.22
2018-06-05T18:06:21.621Z,48.35
2018-06-05T18:08:49.792Z,48.87
2018-06-05T18:11:19.929Z,47.75
2018-06-05T18:13:49.169Z,48.46
2018-06-05T18:16:17.575Z,48.54
2018-06-05T18:18:45.669Z,49.01
2018-06-05T18:21:13.769Z,49.41
2018-06-05T18:23:41.836Z,49.86
2018-06-05T18:26:09.916Z,48.89
2018-06-05T18:28:38.032Z,48.49
2018-06-05T18:31:06.254Z,48.39
2018-06-05T18:33:34.392Z,48.32
2018-06-05T18:36:03.530Z,48.09
2018-06-05T18:38:32.011Z,48.54
2018-06-05T18:41:00.596Z,48.17
2018-06-05T18:43:28.699Z,48.47
2018-06-05T18:45:57.048Z,48.24
2018-06-05T18:48:25.417Z,48.22
2018-06-05T18:50:53.725Z,48.06
2018-06-05T18:53:21.827Z,49.09
2018-06-05T18:55:49.899Z,49.54
2018-06-05T18:58:17.997Z,50.52
2018-06-05T19:00:46.294Z,50.63
2018-06-05T19:03:16.044Z,51.04
2018-06-05T19:05:44.127Z,51.50
2018-06-05T19:08:12.240Z,51.60
2018-06-05T19:10:40.653Z,51.85
2018-06-05T19:13:08.755Z,52.56
2018-06-05T19:15:36.838Z,52.74
2018-06-05T19:18:05.311Z,52.18
2018-06-05T19:20:33.383Z,52.10
2018-06-05T19:23:01.480Z,52.23
2018-06-05T19:25:29.562Z,52.53
2018-06-05T19:27:57.696Z,52.86
2018-06-05T19:30:25.877Z,53.25
2018-06-05T19:32:54.024Z,53.13
2018-06-05T19:35:22.107Z,53.49
2018-06-05T19:37:50.168Z,53.53
2018-06-05T19:40:18.263Z,54.22
2018-06-05T19:42:46.852Z,54.21
2018-06-05T19:45:15.079Z,54.47
2018-06-05T19:47:43.167Z,54.83
2018-06-05T19:50:11.296Z,54.65
2018-06-05T19:52:39.441Z,54.49
2018-06-05T19:55:07.521Z,53.55
2018-06-05T19:57:35.612Z,53.87
2018-06-05T20:00:03.692Z,53.70
2018-06-05T20:02:31.861Z,53.66
2018-06-05T20:05:00.180Z,53.60
2018-06-05T20:07:28.499Z,53.93
2018-06-05T20:09:56.617Z,54.28
2018-06-05T20:12:27.520Z,54.73
2018-06-05T20:14:56.131Z,54.64
2018-06-05T20:17:24.216Z,55.41
2018-06-05T20:19:52.674Z,55.48
2018-06-05T20:22:20.889Z,56.13
2018-06-05T20:24:48.967Z,55.81
2018-06-05T20:27:17.102Z,56.60
2018-06-05T20:29:45.758Z,56.64
2018-06-05T20:32:13.960Z,56.81
2018-06-05T20:34:42.052Z,57.34
2018-06-05T20:37:10.260Z,57.48
2018-06-05T20:39:38.356Z,57.96
2018-06-05T20:42:06.440Z,58.25
2018-06-05T20:44:34.548Z,58.98
2018-06-05T20:47:02.648Z,59.68
2018-06-05T20:49:31.063Z,59.45
2018-06-05T20:51:59.148Z,60.13
2018-06-05T21:00:29.124Z,60.44
2018-06-05T21:08:34.358Z,61.45
2018-06-05T21:13:36.635Z,61.58
2018-06-05T21:16:04.846Z,61.51
2018-06-05T21:18:32.978Z,62.50
2018-06-05T21:21:01.118Z,62.80
2018-06-05T21:32:36.894Z,64.05
2018-06-05T21:35:05.086Z,63.95
2018-06-05T21:37:34.043Z,64.63
2018-06-05T21:40:02.302Z,64.79
2018-06-05T21:42:30.426Z,64.46
2018-06-05T21:48:35.330Z,64.76
